createdAt,value
2017-08-20T00:00:38.482Z,1010.6
2017-08-20T00:01:39.868Z,1010.6
2017-08-20T00:02:41.242Z,1010.6
2017-08-20T00:03:42.725Z,1010.6
2017-08-20T00:04:46.779Z,1010.6
2017-08-20T00:05:48.776Z,1010.6
2017-08-20T00:06:50.829Z,1010.6
2017-08-20T00:07:53.055Z,1010.6
2017-08-20T00:08:55.143Z,1010.6
2017-08-20T00:09:56.908Z,1010.6
2017-08-20T00:10:59.038Z,1010.6
2017-08-20T00:12:41.497Z,1010.6
2017-08-20T00:13:46.909Z,1010.6
2017-08-20T00:14:48.240Z,1010.6
2017-08-20T00:15:50.013Z,1010.6
2017-08-20T00:16:51.471Z,1010.6
2017-08-20T00:17:53.044Z,1010.6
2017-08-20T00:18:54.559Z,1010.6
2017-08-20T00:19:56.020Z,1010.6
2017-08-20T00:20:57.952Z,1010.6
2017-08-20T00:22:00.122Z,1010.5
2017-08-20T00:23:01.876Z,1010.5
2017-08-20T00:24:03.411Z,1010.5
2017-08-20T00:25:05.261Z,1010.6
2017-08-20T00:26:08.145Z,1010.5
2017-08-20T00:27:09.573Z,1010.6
2017-08-20T00:28:11.016Z,1010.6
2017-08-20T00:29:13.252Z,1010.6
2017-08-20T00:30:14.718Z,1010.6
2017-08-20T00:31:16.187Z,1010.6
2017-08-20T00:32:17.612Z,1010.6
2017-08-20T00:33:19.009Z,1010.6
2017-08-20T00:34:20.737Z,1010.6
2017-08-20T00:35:22.259Z,1010.6
2017-08-20T00:36:24.245Z,1010.6
2017-08-20T00:37:25.652Z,1010.7
2017-08-20T00:38:27.203Z,1010.6
2017-08-20T00:39:28.636Z,1010.7
2017-08-20T00:40:30.018Z,1010.6
2017-08-20T00:41:32.278Z,1010.6
2017-08-20T00:42:34.404Z,1010.7
2017-08-20T00:43:35.784Z,1010.6
2017-08-20T00:45:21.406Z,1010.6
2017-08-20T00:46:22.586Z,1010.6
2017-08-20T00:47:24.832Z,1010.7
2017-08-20T00:48:26.268Z,1010.7
2017-08-20T00:49:27.669Z,1010.6
2017-08-20T00:50:29.414Z,1010.7
2017-08-20T00:51:31.172Z,1010.7
2017-08-20T00:52:32.585Z,1010.7
2017-08-20T00:53:33.975Z,1010.7
2017-08-20T00:54:35.895Z,1010.7
2017-08-20T00:55:37.847Z,1010.7
2017-08-20T00:56:40.091Z,1010.7
2017-08-20T00:57:41.970Z,1010.7
2017-08-20T00:58:44.175Z,1010.7
2017-08-20T00:59:46.253Z,1010.7
2017-08-20T01:00:47.754Z,1010.7
2017-08-20T01:01:49.151Z,1010.7
2017-08-20T01:02:51.341Z,1010.6
2017-08-20T01:03:53.589Z,1010.7
2017-08-20T01:04:55.431Z,1010.7
2017-08-20T01:05:57.557Z,1010.7
2017-08-20T01:06:59.717Z,1010.7
2017-08-20T01:08:01.749Z,1010.6
2017-08-20T01:09:03.849Z,1010.7
2017-08-20T01:10:05.284Z,1010.7
2017-08-20T01:11:07.356Z,1010.7
2017-08-20T01:12:09.279Z,1010.7
2017-08-20T01:13:10.754Z,1010.7
2017-08-20T01:14:12.808Z,1010.6
2017-08-20T01:15:14.286Z,1010.6
2017-08-20T01:16:15.706Z,1010.7
2017-08-20T01:17:57.369Z,1010.7
2017-08-20T01:18:58.751Z,1010.7
2017-08-20T01:20:00.422Z,1010.7
2017-08-20T01:21:04.317Z,1010.7
2017-08-20T01:22:05.695Z,1010.7
2017-08-20T01:23:07.085Z,1010.7
2017-08-20T01:24:08.470Z,1010.7
2017-08-20T01:25:09.852Z,1010.7
2017-08-20T01:26:11.218Z,1010.8
2017-08-20T01:27:12.595Z,1010.8
2017-08-20T01:28:14.588Z,1010.7
2017-08-20T01:29:15.999Z,1010.8
2017-08-20T01:30:17.485Z,1010.8
2017-08-20T01:31:19.470Z,1010.8
2017-08-20T01:32:20.888Z,1010.8
2017-08-20T01:33:22.324Z,1010.8
2017-08-20T01:34:24.501Z,1010.8
2017-08-20T01:35:25.922Z,1010.8
2017-08-20T01:36:27.427Z,1010.8
2017-08-20T01:37:28.932Z,1010.8
2017-08-20T01:38:30.476Z,1010.9
2017-08-20T01:39:32.637Z,1010.9
2017-08-20T01:40:34.041Z,1010.9
2017-08-20T01:41:35.453Z,1010.9
2017-08-20T01:42:37.550Z,1010.9
2017-08-20T01:43:39.046Z,1010.9
2017-08-20T01:44:40.424Z,1010.9
2017-08-20T01:45:42.324Z,1010.9
2017-08-20T01:46:43.822Z,1010.9
2017-08-20T01:47:45.291Z,1011.0
2017-08-20T01:48:47.526Z,1011.0
2017-08-20T01:49:49.205Z,1011.0
2017-08-20T01:50:50.856Z,1011.0
2017-08-20T01:51:52.398Z,1011.0
2017-08-20T01:52:53.860Z,1011.0
2017-08-20T01:53:55.858Z,1010.9
2017-08-20T01:54:57.408Z,1010.9
2017-08-20T01:55:59.423Z,1010.9
2017-08-20T01:57:01.448Z,1010.9
2017-08-20T01:58:02.960Z,1010.9
2017-08-20T01:59:04.694Z,1010.9
2017-08-20T02:00:06.652Z,1010.9
2017-08-20T02:01:08.779Z,1010.9
2017-08-20T02:02:10.644Z,1010.9
2017-08-20T02:03:12.298Z,1010.9
2017-08-20T02:04:14.100Z,1010.9
2017-08-20T02:05:15.521Z,1010.9
2017-08-20T02:06:17.617Z,1010.9
2017-08-20T02:07:19.065Z,1010.9
2017-08-20T02:08:20.652Z,1010.9
2017-08-20T02:10:03.036Z,1011.0
2017-08-20T02:11:04.412Z,1011.0
2017-08-20T02:12:05.789Z,1011.0
2017-08-20T02:13:07.159Z,1011.0
2017-08-20T02:14:08.536Z,1011.0
2017-08-20T02:15:09.963Z,1011.0
2017-08-20T02:16:12.072Z,1011.1
2017-08-20T02:17:13.570Z,1011.1
2017-08-20T02:18:15.729Z,1011.1
2017-08-20T02:19:17.794Z,1011.1
2017-08-20T02:20:19.946Z,1011.1
2017-08-20T02:21:21.396Z,1011.1
2017-08-20T02:22:23.022Z,1011.1
2017-08-20T02:23:24.432Z,1011.1
2017-08-20T02:24:26.559Z,1011.1
2017-08-20T02:25:28.611Z,1011.1
2017-08-20T02:26:30.774Z,1011.1
2017-08-20T02:27:32.831Z,1011.1
2017-08-20T02:28:34.919Z,1011.1
2017-08-20T02:29:36.365Z,1011.1
2017-08-20T02:30:38.319Z,1011.1
2017-08-20T02:31:39.728Z,1011.1
2017-08-20T02:32:41.851Z,1011.1
2017-08-20T02:33:43.924Z,1011.1
2017-08-20T02:34:45.531Z,1011.1
2017-08-20T02:35:47.466Z,1011.1
2017-08-20T02:36:49.069Z,1011.1
2017-08-20T02:37:50.500Z,1011.0
2017-08-20T02:38:52.020Z,1011.0
2017-08-20T02:39:53.569Z,1011.1
2017-08-20T02:40:55.073Z,1011.1
2017-08-20T02:41:56.483Z,1011.1
2017-08-20T02:42:58.569Z,1011.1
2017-08-20T02:44:00.582Z,1011.1
2017-08-20T02:45:02.595Z,1011.1
2017-08-20T02:46:04.371Z,1011.1
2017-08-20T02:47:05.830Z,1011.1
2017-08-20T02:48:07.312Z,1011.1
2017-08-20T02:49:08.734Z,1011.1
2017-08-20T02:50:10.853Z,1011.0
2017-08-20T02:51:12.305Z,1011.0
2017-08-20T02:52:13.797Z,1011.0
2017-08-20T02:53:15.240Z,1011.0
2017-08-20T02:54:16.708Z,1011.0
2017-08-20T02:55:18.127Z,1011.0
2017-08-20T02:56:19.627Z,1011.0
2017-08-20T02:57:21.707Z,1010.9
2017-08-20T02:59:04.885Z,1010.9
2017-08-20T03:00:06.265Z,1010.9
2017-08-20T03:01:07.639Z,1010.9
2017-08-20T03:02:09.036Z,1010.9
2017-08-20T03:03:11.916Z,1010.9
2017-08-20T03:04:13.290Z,1010.8
2017-08-20T03:05:14.901Z,1010.9
2017-08-20T03:06:17.018Z,1010.9
2017-08-20T03:07:18.445Z,1010.9
2017-08-20T03:08:19.903Z,1010.9
2017-08-20T03:09:21.333Z,1010.9
2017-08-20T03:10:22.750Z,1010.9
2017-08-20T03:11:24.153Z,1011.0
2017-08-20T03:12:25.561Z,1011.0
2017-08-20T03:13:27.013Z,1011.0
2017-08-20T03:14:29.173Z,1011.0
2017-08-20T03:15:31.163Z,1011.0
2017-08-20T03:16:32.556Z,1011.0
2017-08-20T03:17:34.512Z,1011.1
2017-08-20T03:18:36.440Z,1011.0
2017-08-20T03:19:38.468Z,1011.1
2017-08-20T03:20:39.900Z,1011.0
2017-08-20T03:21:41.351Z,1011.0
2017-08-20T03:22:43.524Z,1011.0
2017-08-20T03:23:45.755Z,1011.1
2017-08-20T03:24:47.772Z,1011.1
2017-08-20T03:25:49.241Z,1011.1
2017-08-20T03:26:50.669Z,1011.1
2017-08-20T03:27:52.107Z,1011.1
2017-08-20T03:28:53.483Z,1011.1
2017-08-20T03:29:55.615Z,1011.1
2017-08-20T03:31:38.004Z,1011.1
2017-08-20T03:32:44.687Z,1011.1
2017-08-20T03:33:46.618Z,1011.1
2017-08-20T03:34:48.642Z,1011.2
2017-08-20T03:35:50.870Z,1011.1
2017-08-20T03:36:52.301Z,1011.1
2017-08-20T03:37:54.224Z,1011.1
2017-08-20T03:38:56.144Z,1011.2
2017-08-20T03:39:57.592Z,1011.1
2017-08-20T03:40:59.631Z,1011.2
2017-08-20T03:42:01.650Z,1011.1
2017-08-20T03:43:03.148Z,1011.2
2017-08-20T03:44:05.295Z,1011.2
2017-08-20T03:45:06.691Z,1011.1
2017-08-20T03:46:08.813Z,1011.2
2017-08-20T03:47:51.132Z,1011.2
2017-08-20T03:48:52.546Z,1011.1
2017-08-20T03:49:53.920Z,1011.1
2017-08-20T03:50:55.297Z,1011.1
2017-08-20T03:51:56.671Z,1011.1
2017-08-20T03:52:58.816Z,1011.1
2017-08-20T03:54:00.945Z,1011.2
2017-08-20T03:55:02.343Z,1011.1
2017-08-20T03:56:03.951Z,1011.1
2017-08-20T03:57:05.390Z,1011.1
2017-08-20T03:58:06.825Z,1011.2
2017-08-20T03:59:08.986Z,1011.2
2017-08-20T04:00:10.559Z,1011.2
2017-08-20T04:01:11.985Z,1011.2
2017-08-20T04:02:13.953Z,1011.2
2017-08-20T04:03:16.087Z,1011.2
2017-08-20T04:04:17.507Z,1011.2
2017-08-20T04:05:18.944Z,1011.2
2017-08-20T04:06:21.059Z,1011.1
2017-08-20T04:07:23.310Z,1011.2
2017-08-20T04:08:24.931Z,1011.1
2017-08-20T04:09:26.335Z,1011.2
2017-08-20T04:10:28.494Z,1011.2
2017-08-20T04:11:30.656Z,1011.2
2017-08-20T04:12:32.800Z,1011.2
2017-08-20T04:13:35.075Z,1011.2
2017-08-20T04:14:36.550Z,1011.2
2017-08-20T04:15:38.040Z,1011.3
2017-08-20T04:16:39.520Z,1011.3
2017-08-20T04:17:41.626Z,1011.3
2017-08-20T04:18:43.041Z,1011.3
2017-08-20T04:19:45.136Z,1011.3
2017-08-20T04:20:47.149Z,1011.3
2017-08-20T04:21:48.566Z,1011.3
2017-08-20T04:22:50.324Z,1011.3
2017-08-20T04:23:52.289Z,1011.3
2017-08-20T04:24:54.312Z,1011.3
2017-08-20T04:25:56.368Z,1011.4
2017-08-20T04:26:57.885Z,1011.4
2017-08-20T04:27:59.285Z,1011.3
2017-08-20T04:29:00.858Z,1011.4
2017-08-20T04:30:02.752Z,1011.4
2017-08-20T04:31:05.562Z,1011.4
2017-08-20T04:32:48.080Z,1011.4
2017-08-20T04:33:49.412Z,1011.5
2017-08-20T04:34:50.815Z,1011.5
2017-08-20T04:35:52.177Z,1011.5
2017-08-20T04:36:53.558Z,1011.5
2017-08-20T04:37:55.848Z,1011.5
2017-08-20T04:38:57.297Z,1011.5
2017-08-20T04:39:58.741Z,1011.5
2017-08-20T04:41:01.303Z,1011.6
2017-08-20T04:42:02.761Z,1011.6
2017-08-20T04:43:04.136Z,1011.6
2017-08-20T04:44:06.026Z,1011.6
2017-08-20T04:45:07.416Z,1011.6
2017-08-20T04:46:08.806Z,1011.6
2017-08-20T15:15:31.044Z,1013.9
2017-08-20T15:16:32.419Z,1013.8
2017-08-20T15:17:33.808Z,1013.9
2017-08-20T15:18:35.193Z,1013.9
2017-08-20T15:19:36.582Z,1013.9
2017-08-20T15:20:37.975Z,1013.9
2017-08-20T15:21:39.367Z,1013.9
2017-08-20T15:22:40.759Z,1013.9
2017-08-20T15:23:42.153Z,1013.9
2017-08-20T15:24:43.544Z,1014.0
2017-08-20T15:25:44.933Z,1014.0
2017-08-20T15:26:46.320Z,1014.0
2017-08-20T15:27:47.719Z,1013.9
2017-08-20T15:28:49.155Z,1013.9
2017-08-20T15:29:50.544Z,1013.8
2017-08-20T15:30:52.026Z,1013.9
2017-08-20T15:31:53.432Z,1013.9
2017-08-20T15:32:54.821Z,1013.9
2017-08-20T15:33:56.216Z,1013.9
2017-08-20T15:34:57.610Z,1014.0
2017-08-20T15:35:59.003Z,1013.9
2017-08-20T15:37:00.394Z,1013.9
2017-08-20T15:38:01.787Z,1013.9
2017-08-20T15:39:03.179Z,1014.0
2017-08-20T15:40:04.568Z,1013.9
2017-08-20T15:41:05.961Z,1013.9
2017-08-20T15:42:07.356Z,1013.8
2017-08-20T15:43:08.788Z,1013.9
2017-08-20T15:44:10.174Z,1013.9
2017-08-20T15:45:11.564Z,1013.9
2017-08-20T15:46:12.954Z,1013.8
2017-08-20T15:47:14.343Z,1013.9
2017-08-20T15:48:15.738Z,1013.9
2017-08-20T15:49:17.124Z,1014.0
2017-08-20T15:50:18.516Z,1013.9
2017-08-20T15:51:19.908Z,1013.9
2017-08-20T15:52:21.310Z,1014.0
2017-08-20T15:53:22.699Z,1013.9
2017-08-20T15:54:24.093Z,1013.9
2017-08-20T15:55:25.481Z,1014.0
2017-08-20T15:57:06.862Z,1013.9
2017-08-20T15:58:08.249Z,1013.9
2017-08-20T15:59:31.243Z,1013.9
2017-08-20T16:00:32.631Z,1013.8
2017-08-20T16:01:34.012Z,1013.8
2017-08-20T16:02:35.400Z,1013.8
2017-08-20T16:03:36.809Z,1013.8
2017-08-20T16:04:38.193Z,1013.8
2017-08-20T16:05:39.586Z,1013.8
2017-08-20T16:06:40.976Z,1013.8
2017-08-20T16:07:42.450Z,1013.8
2017-08-20T16:08:43.821Z,1013.8
2017-08-20T16:09:45.206Z,1013.9
2017-08-20T16:10:46.608Z,1013.8
2017-08-20T16:11:47.995Z,1013.8
2017-08-20T16:12:49.384Z,1013.8
2017-08-20T16:13:50.781Z,1013.8
2017-08-20T16:14:52.168Z,1013.8
2017-08-20T16:15:53.551Z,1013.8
2017-08-20T16:16:54.932Z,1013.7
2017-08-20T16:17:56.338Z,1013.7
2017-08-20T16:18:57.725Z,1013.7
2017-08-20T16:19:59.117Z,1013.7
2017-08-20T16:21:00.509Z,1013.7
2017-08-20T16:22:01.904Z,1013.6
2017-08-20T16:23:03.288Z,1013.7
2017-08-20T16:24:04.679Z,1013.8
2017-08-20T16:25:06.066Z,1013.8
2017-08-20T16:26:07.453Z,1013.8
2017-08-20T16:27:08.837Z,1013.8
2017-08-20T16:28:10.225Z,1013.8
2017-08-20T16:29:11.616Z,1013.8
2017-08-20T16:30:54.029Z,1013.8
2017-08-20T16:31:55.412Z,1013.9
2017-08-20T16:32:56.796Z,1013.7
2017-08-20T16:33:58.186Z,1013.8
2017-08-20T16:34:59.572Z,1013.8
2017-08-20T16:36:01.051Z,1013.8
2017-08-20T16:37:02.448Z,1013.8
2017-08-20T16:38:03.835Z,1013.8
2017-08-20T16:39:05.231Z,1013.8
2017-08-20T16:40:06.618Z,1013.9
2017-08-20T16:41:07.998Z,1013.9
2017-08-20T16:42:09.387Z,1013.9
2017-08-20T16:43:10.772Z,1013.8
2017-08-20T16:44:12.168Z,1013.9
2017-08-20T16:45:13.558Z,1013.8
2017-08-20T16:46:14.944Z,1013.8
2017-08-20T16:47:16.336Z,1013.8
2017-08-20T16:48:17.734Z,1013.8
2017-08-20T16:49:19.128Z,1013.8
2017-08-20T16:50:20.518Z,1013.8
2017-08-20T16:51:21.915Z,1013.8
2017-08-20T16:52:23.305Z,1013.8
2017-08-20T16:53:24.692Z,1013.8
2017-08-20T16:54:26.073Z,1013.8
2017-08-20T16:55:27.463Z,1013.8
2017-08-20T16:56:28.848Z,1013.8
2017-08-20T16:57:30.238Z,1013.8
2017-08-20T16:58:31.628Z,1013.8
2017-08-20T16:59:33.019Z,1013.8
2017-08-20T17:00:34.452Z,1013.8
2017-08-20T17:01:35.837Z,1013.8
2017-08-20T17:02:37.224Z,1013.7
2017-08-20T17:03:38.620Z,1013.8
2017-08-20T17:04:40.000Z,1013.7
2017-08-20T17:05:41.431Z,1013.7
2017-08-20T17:06:42.821Z,1013.7
2017-08-20T17:07:44.279Z,1013.7
2017-08-20T17:08:45.658Z,1013.7
2017-08-20T17:09:47.048Z,1013.7
2017-08-20T17:10:48.437Z,1013.7
2017-08-20T17:11:49.823Z,1013.7
2017-08-20T17:12:51.215Z,1013.7
2017-08-20T17:13:52.615Z,1013.7
2017-08-20T17:14:53.997Z,1013.7
2017-08-20T17:15:55.382Z,1013.7
2017-08-20T17:16:56.788Z,1013.6
2017-08-20T17:17:58.179Z,1013.6
2017-08-20T17:19:39.551Z,1013.6
2017-08-20T17:20:40.935Z,1013.6
2017-08-20T17:21:42.324Z,1013.6
2017-08-20T17:22:43.716Z,1013.6
2017-08-20T17:23:45.103Z,1013.7
2017-08-20T17:24:46.486Z,1013.7
2017-08-20T17:25:47.873Z,1013.7
2017-08-20T17:26:49.260Z,1013.7
2017-08-20T17:27:50.647Z,1013.7
2017-08-20T17:28:52.039Z,1013.6
2017-08-20T17:29:53.425Z,1013.7
2017-08-20T17:30:54.930Z,1013.6
2017-08-20T17:31:56.460Z,1013.6
2017-08-20T17:32:57.826Z,1013.6
2017-08-20T17:33:59.213Z,1013.7
2017-08-20T17:35:00.598Z,1013.6
2017-08-20T17:36:01.981Z,1013.6
2017-08-20T17:37:03.367Z,1013.6
2017-08-20T17:38:04.764Z,1013.6
2017-08-20T17:39:06.150Z,1013.6
2017-08-20T17:40:07.531Z,1013.6
2017-08-20T17:41:08.922Z,1013.5
2017-08-20T17:42:10.310Z,1013.6
2017-08-20T17:43:11.694Z,1013.5
2017-08-20T17:44:13.077Z,1013.5
2017-08-20T17:45:14.465Z,1013.6
2017-08-20T17:46:15.850Z,1013.6
2017-08-20T17:47:17.246Z,1013.6
2017-08-20T17:48:18.631Z,1013.6
2017-08-20T17:49:20.016Z,1013.6
2017-08-20T17:50:21.394Z,1013.6
2017-08-20T17:51:22.791Z,1013.6
2017-08-20T17:52:24.217Z,1013.5
2017-08-20T17:53:25.599Z,1013.6
2017-08-20T17:54:26.999Z,1013.6
2017-08-20T17:55:28.382Z,1013.6
2017-08-20T17:56:29.765Z,1013.6
2017-08-20T17:57:31.147Z,1013.6
2017-08-20T17:58:32.531Z,1013.7
2017-08-20T17:59:33.919Z,1013.6
2017-08-20T18:00:35.298Z,1013.6
2017-08-20T18:01:36.702Z,1013.7
2017-08-20T18:02:38.083Z,1013.7
2017-08-20T18:03:39.467Z,1013.7
2017-08-20T18:04:40.849Z,1013.7
2017-08-20T18:05:42.242Z,1013.7
2017-08-20T18:06:43.615Z,1013.7
2017-08-20T18:07:45.036Z,1013.7
2017-08-20T18:08:46.420Z,1013.8
2017-08-20T18:09:47.805Z,1013.8
2017-08-20T18:10:49.186Z,1013.8
2017-08-20T18:11:50.566Z,1013.8
2017-08-20T18:12:51.976Z,1013.9
2017-08-20T18:13:53.354Z,1013.9
2017-08-20T18:14:54.719Z,1013.9
2017-08-20T18:15:56.101Z,1013.9
2017-08-20T18:16:57.503Z,1013.9
2017-08-20T18:17:58.876Z,1013.9
2017-08-20T18:19:00.257Z,1013.9
2017-08-20T18:20:01.642Z,1013.9
2017-08-20T18:21:03.029Z,1013.9
2017-08-20T18:22:04.407Z,1014.0
2017-08-20T18:23:46.792Z,1013.9
2017-08-20T18:24:48.171Z,1013.9
2017-08-20T18:25:49.553Z,1014.0
2017-08-20T18:26:50.931Z,1014.0
2017-08-20T18:27:52.330Z,1014.0
2017-08-20T18:28:53.740Z,1014.0
2017-08-20T18:29:55.097Z,1014.0
2017-08-20T18:30:56.480Z,1014.0
2017-08-20T18:31:57.887Z,1014.0
2017-08-20T18:32:59.246Z,1014.0
2017-08-20T18:34:00.635Z,1014.0
2017-08-20T18:35:02.029Z,1014.1
2017-08-20T18:36:03.795Z,1014.1
2017-08-20T18:37:05.181Z,1014.0
2017-08-20T18:38:06.560Z,1014.1
2017-08-20T18:39:48.937Z,1014.1
2017-08-20T18:40:50.317Z,1014.1
2017-08-20T18:41:51.699Z,1014.2
2017-08-20T18:42:53.079Z,1014.3
2017-08-20T18:43:54.458Z,1014.2
2017-08-20T18:44:55.840Z,1014.2
2017-08-20T18:45:57.229Z,1014.3
2017-08-20T18:46:58.644Z,1014.3
2017-08-20T18:47:59.989Z,1014.3
2017-08-20T18:49:01.369Z,1014.3
2017-08-20T18:50:02.749Z,1014.3
2017-08-20T18:51:04.128Z,1014.3
2017-08-20T18:52:05.521Z,1014.3
2017-08-20T18:53:06.913Z,1014.3
2017-08-20T18:54:08.294Z,1014.3
2017-08-20T18:55:50.658Z,1014.3
2017-08-20T18:56:52.062Z,1014.3
2017-08-20T18:57:53.441Z,1014.3
2017-08-20T18:58:54.818Z,1014.4
2017-08-20T18:59:56.200Z,1014.3
2017-08-20T19:00:57.580Z,1014.4
2017-08-20T19:01:58.966Z,1014.3
2017-08-20T19:03:00.342Z,1014.4
2017-08-20T19:04:01.739Z,1014.4
2017-08-20T19:05:03.101Z,1014.4
2017-08-20T19:06:04.479Z,1014.4
2017-08-20T19:07:05.858Z,1014.4
2017-08-20T19:08:07.262Z,1014.5
2017-08-20T19:09:08.640Z,1014.5
2017-08-20T19:10:10.021Z,1014.5
2017-08-20T19:11:11.399Z,1014.5
2017-08-20T19:12:12.771Z,1014.5
2017-08-20T19:13:14.152Z,1014.5
2017-08-20T19:14:15.534Z,1014.5
2017-08-20T19:15:16.930Z,1014.5
2017-08-20T19:16:18.309Z,1014.5
2017-08-20T19:17:19.691Z,1014.5
2017-08-20T19:18:21.067Z,1014.5
2017-08-20T19:19:22.455Z,1014.6
2017-08-20T19:20:23.835Z,1014.5
2017-08-20T19:21:25.213Z,1014.5
2017-08-20T19:22:26.595Z,1014.6
2017-08-20T19:23:27.974Z,1014.5
2017-08-20T19:24:29.471Z,1014.5
2017-08-20T19:25:30.860Z,1014.5
2017-08-20T19:26:32.230Z,1014.6
2017-08-20T19:27:33.613Z,1014.6
2017-08-20T19:28:34.992Z,1014.6
2017-08-20T19:29:36.371Z,1014.6
2017-08-20T19:30:37.760Z,1014.6
2017-08-20T19:31:39.131Z,1014.6
2017-08-20T19:32:40.508Z,1014.6
2017-08-20T19:33:41.885Z,1014.6
2017-08-20T19:34:43.264Z,1014.6
2017-08-20T19:35:44.641Z,1014.6
2017-08-20T19:36:46.077Z,1014.6
2017-08-20T19:37:47.471Z,1014.7
2017-08-20T19:38:48.855Z,1014.7
2017-08-20T19:39:50.226Z,1014.7
2017-08-20T19:40:51.604Z,1014.7
2017-08-20T19:41:52.993Z,1014.7
2017-08-20T19:42:54.369Z,1014.8
2017-08-20T19:44:36.759Z,1014.8
2017-08-20T19:45:38.108Z,1014.8
2017-08-20T19:46:39.483Z,1014.8
2017-08-20T19:47:40.864Z,1014.8
2017-08-20T19:48:42.233Z,1014.8
2017-08-20T19:49:43.626Z,1014.9
2017-08-20T19:50:45.003Z,1014.9
2017-08-20T19:51:46.379Z,1014.9
2017-08-20T19:52:47.760Z,1014.9
2017-08-20T19:53:49.136Z,1015.0
2017-08-20T19:54:50.511Z,1014.9
2017-08-20T19:55:51.891Z,1014.9
2017-08-20T19:56:53.270Z,1014.9
2017-08-20T19:57:54.655Z,1014.9
2017-08-20T19:58:56.027Z,1014.9
2017-08-20T19:59:57.401Z,1014.9
2017-08-20T20:00:58.775Z,1015.0
2017-08-20T20:02:00.175Z,1014.9
2017-08-20T20:03:01.556Z,1014.9
2017-08-20T20:04:02.932Z,1015.0
2017-08-20T20:05:04.314Z,1014.9
2017-08-20T20:06:05.690Z,1014.9
2017-08-20T20:07:07.064Z,1015.0
2017-08-20T20:08:08.438Z,1014.9
2017-08-20T20:09:09.816Z,1015.0
2017-08-20T20:10:11.196Z,1015.0
2017-08-20T20:11:12.600Z,1015.0
2017-08-20T20:12:13.974Z,1015.0
2017-08-20T20:13:15.352Z,1015.0
2017-08-20T20:14:16.730Z,1015.0
2017-08-20T20:15:18.105Z,1015.0
2017-08-20T20:17:00.466Z,1015.0
2017-08-20T20:18:01.844Z,1015.0
2017-08-20T20:19:03.227Z,1015.0
2017-08-20T20:20:04.604Z,1015.0
2017-08-20T20:21:05.982Z,1014.9
2017-08-20T20:22:07.365Z,1015.0
2017-08-20T20:23:08.750Z,1014.9
2017-08-20T20:24:10.121Z,1015.0
2017-08-20T20:25:11.498Z,1015.0
2017-08-20T20:26:12.875Z,1015.0
2017-08-20T20:27:14.253Z,1015.0
2017-08-20T20:28:15.633Z,1014.9
2017-08-20T20:29:17.004Z,1014.9
2017-08-20T20:30:18.396Z,1014.9
2017-08-20T20:31:19.772Z,1014.9
2017-08-20T20:33:01.160Z,1014.9
2017-08-20T20:34:02.525Z,1014.9
2017-08-20T20:35:24.505Z,1014.9
2017-08-20T20:36:25.879Z,1014.9
2017-08-20T20:37:48.865Z,1014.8
2017-08-20T20:38:50.240Z,1014.9
2017-08-20T20:39:51.615Z,1014.8
2017-08-20T20:40:52.990Z,1014.9
2017-08-20T20:41:54.371Z,1014.8
2017-08-20T20:42:55.752Z,1014.9
2017-08-20T20:43:57.143Z,1014.9
2017-08-20T20:44:58.515Z,1014.9
2017-08-20T20:45:59.888Z,1014.9
2017-08-20T20:47:01.264Z,1014.9
2017-08-20T20:48:02.643Z,1014.9
2017-08-20T20:49:04.020Z,1014.9
2017-08-20T20:50:05.396Z,1014.9
2017-08-20T20:51:06.776Z,1014.8
2017-08-20T20:52:08.155Z,1014.9
2017-08-20T20:53:09.521Z,1014.9
2017-08-20T20:54:10.916Z,1014.9
2017-08-20T20:55:12.459Z,1014.9
2017-08-20T20:56:14.034Z,1014.9
2017-08-20T20:57:15.399Z,1015.0
2017-08-20T20:58:16.784Z,1015.0
2017-08-20T20:59:18.157Z,1015.0
2017-08-20T21:00:19.532Z,1015.0
2017-08-20T21:01:20.907Z,1015.0
2017-08-20T21:02:22.284Z,1015.0
2017-08-20T21:03:23.656Z,1015.0
2017-08-20T21:05:06.032Z,1015.0
2017-08-20T21:06:07.420Z,1015.0
2017-08-20T21:07:08.786Z,1015.1
2017-08-20T21:08:10.163Z,1015.1
2017-08-20T21:09:11.538Z,1015.1
2017-08-20T21:10:12.913Z,1015.1
2017-08-20T21:11:14.384Z,1015.1
2017-08-20T21:12:15.736Z,1015.1
2017-08-20T21:13:17.117Z,1015.1
2017-08-20T21:14:18.500Z,1015.0
2017-08-20T21:15:19.872Z,1015.0
2017-08-20T21:16:21.251Z,1015.0
2017-08-20T21:17:22.641Z,1015.0
2017-08-20T21:18:24.033Z,1014.9
2017-08-20T21:19:25.422Z,1015.0
2017-08-20T21:21:07.842Z,1015.0
2017-08-20T21:22:09.217Z,1015.0
2017-08-20T21:23:10.590Z,1015.0
2017-08-20T21:24:11.966Z,1015.1
2017-08-20T21:25:13.343Z,1015.1
2017-08-20T21:26:14.763Z,1015.1
2017-08-20T21:27:16.143Z,1015.1
2017-08-20T21:28:17.521Z,1015.1
2017-08-20T21:29:18.899Z,1015.1
2017-08-20T21:30:20.271Z,1015.0
2017-08-20T21:31:21.649Z,1015.1
2017-08-20T21:32:23.026Z,1015.0
2017-08-20T21:33:24.403Z,1015.0
2017-08-20T21:34:25.781Z,1015.0
2017-08-20T21:35:27.158Z,1015.0
2017-08-20T21:36:28.533Z,1015.0
2017-08-20T21:37:29.908Z,1015.0
2017-08-20T21:38:31.281Z,1015.0
2017-08-20T21:39:32.677Z,1015.0
2017-08-20T21:40:34.043Z,1015.0
2017-08-20T21:41:35.424Z,1015.0
2017-08-20T21:42:36.805Z,1015.0
2017-08-20T21:43:38.174Z,1015.1
2017-08-20T21:44:39.553Z,1015.0
2017-08-20T21:45:40.928Z,1015.0
2017-08-20T21:46:42.352Z,1015.0
2017-08-20T21:47:43.725Z,1015.0
2017-08-20T21:48:45.091Z,1015.0
2017-08-20T21:49:46.470Z,1015.0
2017-08-20T21:50:47.880Z,1015.0
2017-08-20T21:51:49.256Z,1015.0
2017-08-20T21:52:50.638Z,1015.0
2017-08-20T21:53:52.008Z,1015.0
2017-08-20T21:54:53.389Z,1014.9
2017-08-20T21:55:54.800Z,1014.9
2017-08-20T21:56:56.192Z,1014.9
2017-08-20T21:57:57.613Z,1014.9
2017-08-20T21:58:58.976Z,1014.9
2017-08-20T22:00:00.352Z,1015.0
2017-08-20T22:01:01.729Z,1015.0
2017-08-20T22:02:03.123Z,1015.0
2017-08-20T22:03:04.501Z,1015.0
2017-08-20T22:04:05.879Z,1015.0
2017-08-20T22:05:07.256Z,1015.0
2017-08-20T22:06:08.630Z,1015.0
2017-08-20T22:07:10.007Z,1015.0
2017-08-20T22:08:11.386Z,1015.0
2017-08-20T22:09:12.767Z,1014.9
2017-08-20T22:10:14.167Z,1014.8
2017-08-20T22:11:15.617Z,1014.8
2017-08-20T22:12:16.994Z,1014.7
2017-08-20T22:13:18.370Z,1014.8
2017-08-20T22:14:19.748Z,1014.8
2017-08-20T22:15:21.128Z,1014.9
2017-08-20T22:16:22.512Z,1014.9
2017-08-20T22:17:23.888Z,1014.9
2017-08-20T22:18:25.268Z,1014.9
2017-08-20T22:19:26.639Z,1014.9
2017-08-20T22:20:28.019Z,1014.9
2017-08-20T22:21:29.399Z,1014.9
2017-08-20T22:22:30.779Z,1014.9
2017-08-20T22:23:32.164Z,1014.9
2017-08-20T22:24:33.534Z,1014.9
2017-08-20T22:25:34.928Z,1014.9
2017-08-20T22:26:36.298Z,1014.8
2017-08-20T22:27:37.677Z,1014.8
2017-08-20T22:28:39.060Z,1014.8
2017-08-20T22:29:40.437Z,1014.7
2017-08-20T22:30:41.820Z,1014.8
2017-08-20T22:31:43.198Z,1014.7
2017-08-20T22:32:44.575Z,1014.7
2017-08-20T22:33:45.950Z,1014.7
2017-08-20T22:34:47.331Z,1014.7
2017-08-20T22:35:48.713Z,1014.7
2017-08-20T22:36:50.086Z,1014.8
2017-08-20T22:37:51.467Z,1014.8
2017-08-20T22:38:52.855Z,1014.8
2017-08-20T22:39:54.230Z,1014.8
2017-08-20T22:40:55.604Z,1014.8
2017-08-20T22:41:56.982Z,1014.9
2017-08-20T22:42:58.353Z,1014.9
2017-08-20T22:43:59.729Z,1014.8
2017-08-20T22:45:01.109Z,1014.8
2017-08-20T22:46:02.488Z,1014.8
2017-08-20T22:47:03.866Z,1014.8
2017-08-20T22:48:05.247Z,1014.7
2017-08-20T22:49:06.624Z,1014.7
2017-08-20T22:50:08.004Z,1014.7
2017-08-20T22:51:09.384Z,1014.7
2017-08-20T22:52:10.772Z,1014.7
2017-08-20T22:53:12.138Z,1014.6
2017-08-20T22:54:13.517Z,1014.6
2017-08-20T22:55:14.895Z,1014.6
2017-08-20T22:56:16.270Z,1014.6
2017-08-20T22:57:17.644Z,1014.6
2017-08-20T22:58:19.023Z,1014.6
2017-08-20T22:59:20.401Z,1014.6
2017-08-20T23:00:21.777Z,1014.6
2017-08-20T23:01:23.163Z,1014.6
2017-08-20T23:02:24.533Z,1014.7
2017-08-20T23:03:25.909Z,1014.6
2017-08-20T23:04:27.287Z,1014.6
2017-08-20T23:05:28.667Z,1014.7
2017-08-20T23:06:30.043Z,1014.7
2017-08-20T23:07:31.417Z,1014.7
2017-08-20T23:08:32.803Z,1014.7
2017-08-20T23:09:34.220Z,1014.7
2017-08-20T23:10:35.580Z,1014.6
2017-08-20T23:11:36.955Z,1014.6
2017-08-20T23:12:38.340Z,1014.6
2017-08-20T23:13:39.715Z,1014.6
2017-08-20T23:14:41.097Z,1014.6
2017-08-20T23:15:42.473Z,1014.6
2017-08-20T23:16:43.845Z,1014.6
2017-08-20T23:17:45.221Z,1014.6
2017-08-20T23:18:46.648Z,1014.6
2017-08-20T23:19:48.046Z,1014.6
2017-08-20T23:20:49.424Z,1014.6
2017-08-20T23:21:50.808Z,1014.6
2017-08-20T23:22:52.178Z,1014.6
2017-08-20T23:23:53.559Z,1014.6
2017-08-20T23:24:54.934Z,1014.6
2017-08-20T23:25:56.311Z,1014.5
2017-08-20T23:26:57.686Z,1014.5
2017-08-20T23:27:59.138Z,1014.5
2017-08-20T23:29:00.727Z,1014.5
2017-08-20T23:30:02.116Z,1014.5